createdAt,value
2022-07-25T00:02:34.027Z,7.25
2022-07-25T00:05:37.942Z,6.93
2022-07-25T00:08:39.761Z,7.25
2022-07-25T00:11:41.378Z,7.47
2022-07-25T00:14:42.958Z,7.93
2022-07-25T00:17:45.029Z,7.13
2022-07-25T00:20:47.291Z,6.88
2022-07-25T00:23:48.933Z,7.10
2022-07-25T00:26:50.531Z,7.50
2022-07-25T00:29:52.139Z,7.75
2022-07-25T00:32:53.719Z,7.30
2022-07-25T00:35:55.321Z,7.13
2022-07-25T00:38:56.931Z,7.07
2022-07-25T00:41:58.584Z,7.32
2022-07-25T00:45:00.334Z,7.30
2022-07-25T00:48:01.999Z,7.15
2022-07-25T00:51:03.814Z,7.45
2022-07-25T00:54:05.795Z,7.60
2022-07-25T00:57:07.781Z,7.45
2022-07-25T01:00:13.316Z,7.40
2022-07-25T01:03:15.483Z,7.68
2022-07-25T01:06:17.471Z,7.70
2022-07-25T01:09:20.815Z,7.38
2022-07-25T01:12:22.401Z,6.97
2022-07-25T01:15:24.608Z,7.10
2022-07-25T01:18:26.431Z,7.57
2022-07-25T01:21:28.055Z,7.20
2022-07-25T01:24:29.776Z,7.85
2022-07-25T01:27:31.796Z,7.25
2022-07-25T01:30:33.401Z,6.80
2022-07-25T01:33:35.093Z,7.25
2022-07-25T01:36:36.791Z,7.95
2022-07-25T01:39:38.343Z,7.80
2022-07-25T01:42:40.174Z,7.85
2022-07-25T01:45:41.820Z,7.90
2022-07-25T01:48:43.551Z,7.93
2022-07-25T01:51:45.215Z,7.47
2022-07-25T01:54:47.131Z,7.60
2022-07-25T01:57:50.315Z,8.20
2022-07-25T02:00:52.336Z,7.88
2022-07-25T02:03:53.918Z,7.40
2022-07-25T02:06:55.654Z,7.40
2022-07-25T02:09:57.288Z,7.78
2022-07-25T02:13:00.305Z,7.22
2022-07-25T02:16:01.871Z,7.40
2022-07-25T02:19:03.779Z,7.68
2022-07-25T02:22:05.561Z,7.60
2022-07-25T02:25:07.444Z,7.72
2022-07-25T02:28:10.652Z,7.55
2022-07-25T02:31:12.637Z,8.15
2022-07-25T02:34:14.289Z,7.90
2022-07-25T02:37:16.002Z,7.95
2022-07-25T02:40:17.616Z,7.68
2022-07-25T02:43:20.194Z,7.95
2022-07-25T02:46:21.932Z,7.68
2022-07-25T02:49:23.549Z,8.13
2022-07-25T02:52:25.162Z,8.07
2022-07-25T02:55:26.772Z,7.65
2022-07-25T02:58:28.365Z,7.70
2022-07-25T03:01:30.228Z,7.50
2022-07-25T03:04:32.075Z,8.57
2022-07-25T03:07:34.124Z,7.95
2022-07-25T03:10:36.370Z,8.63
2022-07-25T03:13:37.959Z,7.95
2022-07-25T03:16:39.696Z,7.65
2022-07-25T03:19:41.364Z,7.75
2022-07-25T03:22:42.970Z,7.88
2022-07-25T03:25:44.644Z,7.85
2022-07-25T03:28:46.255Z,7.32
2022-07-25T03:31:47.939Z,7.13
2022-07-25T03:34:49.703Z,8.00
2022-07-25T03:37:51.440Z,7.22
2022-07-25T03:40:53.140Z,7.57
2022-07-25T03:43:54.763Z,7.88
2022-07-25T03:46:56.484Z,7.45
2022-07-25T03:49:58.110Z,7.45
2022-07-25T03:52:59.823Z,7.90
2022-07-25T03:56:01.432Z,7.40
2022-07-25T03:59:06.636Z,7.13
2022-07-25T04:02:08.372Z,7.45
2022-07-25T04:05:10.320Z,7.03
2022-07-25T04:08:11.911Z,7.65
2022-07-25T04:11:13.588Z,7.63
2022-07-25T04:14:15.183Z,7.75
2022-07-25T04:17:16.768Z,7.45
2022-07-25T04:20:18.554Z,6.93
2022-07-25T04:23:20.251Z,6.90
2022-07-25T04:26:21.953Z,6.75
2022-07-25T04:29:23.582Z,7.63
2022-07-25T04:32:25.228Z,7.20
2022-07-25T04:35:26.903Z,7.13
2022-07-25T04:38:28.498Z,7.38
2022-07-25T04:41:30.386Z,7.20
2022-07-25T04:44:32.060Z,6.88
2022-07-25T04:47:33.638Z,7.07
2022-07-25T04:50:36.284Z,6.88
2022-07-25T04:53:37.897Z,7.10
2022-07-25T04:56:39.479Z,7.55
2022-07-25T04:59:41.135Z,7.00
2022-07-25T05:02:43.074Z,7.15
2022-07-25T05:05:44.716Z,6.47
2022-07-25T05:08:46.918Z,6.55
2022-07-25T05:11:52.792Z,7.22
2022-07-25T05:14:57.678Z,6.63
2022-07-25T05:17:59.292Z,7.25
2022-07-25T05:21:00.918Z,6.95
2022-07-25T05:24:02.578Z,7.18
2022-07-25T05:27:05.181Z,7.15
2022-07-25T05:30:09.170Z,7.28
2022-07-25T05:33:10.781Z,7.03
2022-07-25T05:36:12.395Z,7.03
2022-07-25T05:39:14.107Z,6.55
2022-07-25T05:42:15.756Z,7.47
2022-07-25T05:45:17.496Z,6.22
2022-07-25T05:48:19.102Z,6.57
2022-07-25T05:51:20.727Z,6.80
2022-07-25T05:54:22.300Z,7.40
2022-07-25T05:57:23.898Z,7.22
2022-07-25T06:00:25.969Z,6.65
2022-07-25T06:03:27.695Z,7.50
2022-07-25T06:06:32.575Z,6.97
2022-07-25T06:09:34.210Z,7.32
2022-07-25T06:12:36.745Z,6.85
2022-07-25T06:15:38.561Z,7.03
2022-07-25T06:18:40.184Z,7.55
2022-07-25T06:21:41.776Z,7.03
2022-07-25T06:24:43.361Z,7.15
2022-07-25T06:27:45.095Z,7.03
2022-07-25T06:30:46.992Z,7.60
2022-07-25T06:33:48.665Z,7.05
2022-07-25T06:36:50.250Z,7.00
2022-07-25T06:39:51.971Z,8.95
2022-07-25T06:42:53.834Z,6.53
2022-07-25T06:45:55.418Z,7.22
2022-07-25T06:48:57.433Z,6.60
2022-07-25T06:51:59.056Z,6.47
2022-07-25T06:55:00.986Z,6.97
2022-07-25T06:58:02.747Z,7.10
2022-07-25T07:01:04.559Z,7.47
2022-07-25T07:04:06.594Z,6.68
2022-07-25T07:07:08.528Z,6.65
2022-07-25T07:10:10.293Z,6.80
2022-07-25T07:13:15.075Z,7.20
2022-07-25T07:16:20.540Z,6.85
2022-07-25T07:19:22.497Z,6.47
2022-07-25T07:22:24.055Z,7.40
2022-07-25T07:25:28.375Z,6.95
2022-07-25T07:28:31.397Z,7.03
2022-07-25T07:31:33.345Z,6.45
2022-07-25T07:34:35.131Z,6.50
2022-07-25T07:37:42.927Z,6.10
2022-07-25T07:40:45.346Z,7.05
2022-07-25T07:43:47.047Z,6.53
2022-07-25T07:46:49.679Z,7.03
2022-07-25T07:49:51.308Z,6.30
2022-07-25T07:52:54.539Z,6.75
2022-07-25T07:56:05.347Z,7.03
2022-07-25T07:59:10.494Z,6.68
2022-07-25T08:02:12.240Z,6.43
2022-07-25T08:05:23.816Z,6.75
2022-07-25T08:08:30.866Z,6.05
2022-07-25T08:11:32.857Z,7.82
2022-07-25T08:14:34.483Z,6.75
2022-07-25T08:17:36.317Z,6.40
2022-07-25T08:20:38.851Z,6.57
2022-07-25T08:23:40.858Z,6.85
2022-07-25T08:26:42.478Z,7.53
2022-07-25T08:29:44.097Z,7.03
2022-07-25T08:32:54.002Z,7.65
2022-07-25T08:35:56.393Z,7.63
2022-07-25T08:38:58.035Z,7.38
2022-07-25T08:42:00.566Z,6.82
2022-07-25T08:45:05.538Z,7.05
2022-07-25T08:48:07.465Z,7.30
2022-07-25T08:51:10.032Z,6.70
2022-07-25T08:54:11.883Z,7.13
2022-07-25T08:57:16.604Z,6.85
2022-07-25T09:00:23.887Z,6.03
2022-07-25T09:03:27.169Z,6.70
2022-07-25T09:06:28.835Z,7.20
2022-07-25T09:09:33.053Z,7.05
2022-07-25T09:12:34.657Z,6.82
2022-07-25T09:15:50.729Z,6.75
2022-07-25T09:18:52.699Z,6.00
2022-07-25T09:22:12.507Z,6.35
2022-07-25T09:25:29.953Z,6.50
2022-07-25T09:28:31.923Z,6.78
2022-07-25T09:31:34.939Z,6.65
2022-07-25T09:34:38.980Z,6.20
2022-07-25T09:37:40.791Z,6.68
2022-07-25T09:40:53.076Z,7.72
2022-07-25T09:43:54.881Z,7.00
2022-07-25T09:47:10.810Z,7.25
2022-07-25T09:50:12.493Z,7.22
2022-07-25T09:53:14.363Z,7.57
2022-07-25T09:56:15.965Z,7.20
2022-07-25T09:59:17.567Z,7.68
2022-07-25T10:03:00.830Z,6.30
2022-07-25T10:06:14.791Z,7.25
2022-07-25T10:09:17.339Z,7.82
2022-07-25T10:12:21.277Z,7.53
2022-07-25T10:15:23.034Z,6.80
2022-07-25T10:18:27.639Z,6.97
2022-07-25T10:21:29.378Z,7.45
2022-07-25T10:24:35.640Z,7.50
2022-07-25T10:27:53.550Z,6.90
2022-07-25T10:30:58.908Z,6.53
2022-07-25T10:34:03.491Z,7.28
2022-07-25T10:37:18.251Z,7.32
2022-07-25T10:40:32.804Z,6.25
2022-07-25T10:43:38.741Z,6.03
2022-07-25T10:46:40.980Z,5.68
2022-07-25T10:50:06.808Z,5.28
2022-07-25T10:53:09.133Z,5.22
2022-07-25T10:56:22.080Z,5.65
2022-07-25T10:59:37.753Z,4.93
2022-07-25T11:02:39.836Z,4.70
2022-07-25T11:05:45.821Z,4.30
2022-07-25T11:08:47.422Z,5.18
2022-07-25T11:11:51.390Z,4.70
2022-07-25T11:15:06.434Z,4.35
2022-07-25T11:18:08.241Z,4.70
2022-07-25T11:21:09.892Z,4.38
2022-07-25T11:24:11.520Z,4.78
2022-07-25T11:27:24.699Z,4.55
2022-07-25T11:30:29.026Z,4.80
2022-07-25T11:33:30.987Z,3.85
2022-07-25T11:36:32.643Z,4.18
2022-07-25T11:39:36.335Z,4.30
2022-07-25T11:42:46.926Z,4.22
2022-07-25T11:45:59.742Z,4.55
2022-07-25T11:49:06.466Z,4.45
2022-07-25T11:52:19.974Z,4.18
2022-07-25T11:55:32.302Z,4.53
2022-07-25T11:58:34.002Z,4.55
2022-07-25T12:01:43.840Z,4.15
2022-07-25T12:04:57.247Z,4.13
2022-07-25T12:08:11.758Z,3.90
2022-07-25T12:11:21.369Z,4.13
2022-07-25T12:14:22.990Z,3.60
2022-07-25T12:17:24.579Z,3.28
2022-07-25T12:20:27.442Z,3.92
2022-07-25T12:23:29.173Z,3.97
2022-07-25T12:26:30.824Z,3.83
2022-07-25T12:29:32.526Z,4.00
2022-07-25T12:32:34.857Z,3.80
2022-07-25T12:35:37.405Z,3.63
2022-07-25T12:38:39.205Z,3.78
2022-07-25T12:41:42.353Z,4.70
2022-07-25T12:44:43.978Z,3.85
2022-07-25T12:47:47.549Z,3.22
2022-07-25T12:50:51.629Z,3.65
2022-07-25T12:53:53.277Z,3.45
2022-07-25T12:56:54.909Z,3.63
2022-07-25T12:59:57.033Z,3.60
2022-07-25T13:02:58.843Z,4.03
2022-07-25T13:06:00.659Z,4.10
2022-07-25T13:09:02.977Z,3.72
2022-07-25T13:12:05.096Z,3.88
2022-07-25T13:15:07.654Z,4.03
2022-07-25T13:18:09.355Z,4.20
2022-07-25T13:21:11.276Z,4.22
2022-07-25T13:24:12.952Z,4.25
2022-07-25T13:27:14.724Z,3.75
2022-07-25T13:30:16.690Z,3.90
2022-07-25T13:33:18.692Z,3.85
2022-07-25T13:36:20.691Z,3.10
2022-07-25T13:39:22.453Z,3.40
2022-07-25T13:42:24.416Z,3.30
2022-07-25T13:45:26.086Z,2.83
2022-07-25T13:48:30.542Z,2.85
2022-07-25T13:51:32.866Z,3.55
2022-07-25T13:54:34.482Z,3.30
2022-07-25T13:57:36.220Z,2.85
2022-07-25T14:00:37.801Z,3.20
2022-07-25T14:03:39.464Z,3.03
2022-07-25T14:06:41.594Z,3.20
2022-07-25T14:09:43.281Z,2.97
2022-07-25T14:12:44.989Z,2.90
2022-07-25T14:15:46.813Z,2.83
2022-07-25T14:18:48.865Z,2.95
2022-07-25T14:21:50.514Z,2.45
2022-07-25T14:24:52.384Z,2.92
2022-07-25T14:27:54.130Z,2.78
2022-07-25T14:30:55.930Z,2.55
2022-07-25T14:33:58.022Z,3.03
2022-07-25T14:36:59.937Z,2.63
2022-07-25T14:40:02.338Z,2.55
2022-07-25T14:43:04.619Z,2.42
2022-07-25T14:46:07.961Z,2.80
2022-07-25T14:49:16.765Z,2.58
2022-07-25T14:52:18.667Z,2.55
2022-07-25T14:55:22.088Z,2.60
2022-07-25T14:58:23.809Z,2.78
2022-07-25T15:01:25.634Z,2.70
2022-07-25T15:04:28.054Z,3.00
2022-07-25T15:07:29.850Z,2.90
2022-07-25T15:10:31.514Z,2.88
2022-07-25T15:13:33.257Z,2.90
2022-07-25T15:16:35.084Z,3.78
2022-07-25T15:19:36.965Z,3.75
2022-07-25T15:22:38.577Z,3.83
2022-07-25T15:29:02.449Z,3.40
2022-07-25T15:32:05.466Z,3.20
2022-07-25T15:35:08.225Z,2.90
2022-07-25T15:38:09.861Z,3.10
2022-07-25T15:41:11.950Z,3.30
2022-07-25T15:44:13.568Z,2.70
2022-07-25T15:47:15.295Z,2.80
2022-07-25T15:50:20.278Z,2.95
2022-07-25T15:53:22.050Z,2.30
2022-07-25T15:56:25.287Z,2.60
2022-07-25T15:59:27.007Z,2.28
2022-07-25T16:02:28.657Z,2.45
2022-07-25T16:05:31.362Z,2.40
2022-07-25T16:08:36.775Z,2.72
2022-07-25T16:11:39.078Z,2.88
2022-07-25T16:14:41.534Z,2.60
2022-07-25T16:17:43.273Z,2.85
2022-07-25T16:20:45.018Z,2.30
2022-07-25T16:23:46.884Z,2.47
2022-07-25T16:26:48.966Z,2.47
2022-07-25T16:29:53.230Z,2.50
2022-07-25T16:32:57.925Z,2.97
2022-07-25T16:35:59.699Z,2.67
2022-07-25T16:39:08.790Z,2.40
2022-07-25T16:42:10.801Z,2.40
2022-07-25T16:45:12.759Z,2.60
2022-07-25T16:48:14.587Z,2.47
2022-07-25T16:51:16.448Z,2.50
2022-07-25T16:54:18.243Z,2.40
2022-07-25T16:57:23.802Z,2.17
2022-07-25T17:00:26.891Z,2.25
2022-07-25T17:03:28.658Z,2.50
2022-07-25T17:06:30.951Z,2.67
2022-07-25T17:09:32.689Z,2.50
2022-07-25T17:12:38.056Z,2.35
2022-07-25T17:15:43.262Z,2.22
2022-07-25T17:18:45.285Z,2.55
2022-07-25T17:21:47.179Z,2.50
2022-07-25T17:24:48.756Z,2.40
2022-07-25T17:27:52.888Z,2.63
2022-07-25T17:30:54.673Z,2.40
2022-07-25T17:33:56.437Z,2.33
2022-07-25T17:37:02.579Z,2.80
2022-07-25T17:40:04.762Z,2.65
2022-07-25T17:43:06.581Z,1.95
2022-07-25T17:46:12.858Z,2.80
2022-07-25T17:49:16.854Z,2.50
2022-07-25T17:52:18.827Z,2.20
2022-07-25T17:55:25.973Z,2.70
2022-07-25T17:58:31.851Z,2.08
2022-07-25T18:01:33.533Z,1.85
2022-07-25T18:04:35.322Z,2.03
2022-07-25T18:07:45.530Z,1.73
2022-07-25T18:14:01.033Z,1.38
2022-07-25T18:17:14.273Z,1.77
2022-07-25T18:20:18.482Z,1.48
2022-07-25T18:23:22.054Z,1.33
2022-07-25T18:26:23.874Z,1.60
2022-07-25T18:29:28.265Z,1.38
2022-07-25T18:32:33.100Z,1.70
2022-07-25T18:35:35.381Z,1.58
2022-07-25T18:38:40.687Z,1.80
2022-07-25T18:41:43.237Z,1.25
2022-07-25T18:44:45.059Z,1.65
2022-07-25T18:47:50.849Z,1.48
2022-07-25T18:50:52.764Z,1.48
2022-07-25T18:53:54.543Z,1.48
2022-07-25T19:00:15.051Z,1.75
2022-07-25T19:03:19.907Z,1.23
2022-07-25T19:06:21.649Z,1.17
2022-07-25T19:09:23.820Z,1.40
2022-07-25T19:12:27.231Z,1.58
2022-07-25T19:15:29.248Z,1.25
2022-07-25T19:18:37.089Z,1.35
2022-07-25T19:21:38.822Z,1.30
2022-07-25T19:24:42.935Z,1.52
2022-07-25T19:27:45.349Z,1.23
2022-07-25T19:30:48.383Z,1.40
2022-07-25T19:33:50.761Z,1.50
2022-07-25T19:36:53.940Z,1.33
2022-07-25T19:39:55.678Z,1.33
2022-07-25T19:42:57.712Z,1.33
2022-07-25T19:46:01.780Z,1.30
2022-07-25T19:49:11.854Z,1.30
2022-07-25T19:52:15.296Z,1.30
2022-07-25T19:55:17.453Z,1.20
2022-07-25T19:58:19.455Z,1.40
2022-07-25T20:01:23.997Z,1.40
2022-07-25T20:04:27.108Z,1.23
2022-07-25T20:07:29.167Z,1.13
2022-07-25T20:10:31.657Z,1.27
2022-07-25T20:13:33.733Z,1.30
2022-07-25T20:16:37.053Z,1.60
2022-07-25T20:19:39.227Z,1.13
2022-07-25T20:22:42.056Z,1.48
2022-07-25T20:25:44.654Z,1.15
2022-07-25T20:28:47.034Z,1.25
2022-07-25T20:31:49.196Z,1.23
2022-07-25T20:34:52.700Z,1.08
2022-07-25T20:37:54.867Z,1.08
2022-07-25T20:41:00.247Z,1.13
2022-07-25T20:44:02.277Z,0.80
2022-07-25T20:47:05.811Z,1.33
2022-07-25T20:50:10.099Z,1.08
2022-07-25T20:53:12.917Z,1.08
2022-07-25T20:56:21.433Z,1.20
2022-07-25T20:59:23.369Z,1.00
2022-07-25T21:02:34.944Z,1.30
2022-07-25T21:06:03.467Z,0.95
2022-07-25T21:09:12.229Z,1.20
2022-07-25T21:12:18.165Z,1.50
2022-07-25T21:15:20.623Z,1.20
2022-07-25T21:18:26.275Z,0.90
2022-07-25T21:21:51.807Z,1.27
2022-07-25T21:25:03.656Z,1.10
2022-07-25T21:28:06.387Z,1.30
2022-07-25T21:31:27.320Z,1.20
2022-07-25T21:34:30.276Z,1.05
2022-07-25T21:37:35.688Z,1.38
2022-07-25T21:40:41.542Z,1.60
2022-07-25T21:43:45.052Z,1.05
2022-07-25T21:46:51.317Z,1.35
2022-07-25T21:50:59.030Z,1.00
2022-07-25T21:58:47.647Z,1.58
2022-07-25T22:01:49.726Z,1.17
2022-07-25T22:04:58.210Z,1.50
2022-07-25T22:33:54.514Z,1.40
2022-07-25T22:41:34.999Z,1.65
2022-07-25T22:44:40.782Z,1.50
2022-07-25T22:47:47.955Z,1.50
2022-07-25T22:50:55.521Z,1.40
2022-07-25T22:54:01.372Z,1.25
2022-07-25T22:57:10.703Z,1.13
2022-07-25T23:00:16.104Z,1.60
2022-07-25T23:03:19.402Z,1.42
2022-07-25T23:06:29.199Z,1.65
2022-07-25T23:10:30.658Z,1.33
2022-07-25T23:13:34.168Z,1.38
2022-07-25T23:16:36.077Z,1.45
2022-07-25T23:20:09.731Z,1.40
2022-07-25T23:23:11.708Z,1.30
2022-07-25T23:26:13.570Z,1.63
2022-07-25T23:29:15.517Z,1.45
2022-07-25T23:32:17.500Z,1.45
2022-07-25T23:35:19.383Z,1.30
2022-07-25T23:38:22.353Z,1.23
2022-07-25T23:41:24.209Z,1.30
2022-07-25T23:44:26.595Z,1.73
2022-07-25T23:47:39.290Z,1.60
2022-07-25T23:50:42.703Z,1.50
2022-07-25T23:53:48.761Z,1.60
2022-07-25T23:56:51.763Z,2.13
2022-07-25T23:59:55.486Z,1.60
